Stations météo

réclame
Mon MeteoGroup
Bourg-St-Maurice, France (7497): Température de l'air & dewpoint: 19.03.2019 11:00:00 - 25.03.2019 11:00:00 (CET)Bourg-St-Maurice, France (7497): Température de l'air -20cm & Température de l'air -100cm: 19.03.2019 11:00:00 - 25.03.2019 11:00:00 (CET)Bourg-St-Maurice, France (7497): Vitesse du vent & gusts: 19.03.2019 11:00:00 - 25.03.2019 11:00:00 (CET)Bourg-St-Maurice, France (7497): Direction du vent: 19.03.2019 11:00:00 - 25.03.2019 11:00:00 (CET)Bourg-St-Maurice, France (7497): Ensoleillement: 19.03.2019 11:00:00 - 25.03.2019 11:00:00 (CET)Bourg-St-Maurice, France (7497): Quantités de précipitations: 19.03.2019 11:00:00 - 25.03.2019 11:00:00 (CET)
Date & Time tt [°C] td [°C] tt -20cm [°C] tt -100cm [°C] ff [km/h] ff [knt] fx [km/h] fx [knt] dd sd [min] rr [mm]
25.03.2019 11:00:00 12,3 0,1 7,7 6,7 9 5 16 9 S 60 0,0
25.03.2019 10:00:00 9,8 0,7 7,7 6,6 5 3 10 5 S 60 0,0
25.03.2019 09:00:00 7,0 -0,5 7,8 6,7 3 1 5 3 ESE 60 0,0
25.03.2019 08:00:00 2,7 -0,6 8,0 6,6 2 1 4 2 NE 10 0,0
25.03.2019 07:00:00 1,9 -1,4 8,2 6,6 0 0 3 1 N 0 0,0
25.03.2019 06:00:00 2,6 -0,9 8,3 6,6 0 0 5 3 N 0 0,0
25.03.2019 05:00:00 3,0 -1,2 8,5 6,6 0 0 4 2 N 0 0,0
25.03.2019 04:00:00 3,7 -0,7 8,7 6,6 3 2 8 4 N 0 0,0
25.03.2019 03:00:00 3,8 -0,4 8,9 6,6 4 2 6 3 NNE 0 0,0
25.03.2019 02:00:00 4,8 -0,6 9,0 6,6 0 0 5 3 N 0 0,0
25.03.2019 01:00:00 5,8 -0,1 9,2 6,6 2 1 8 4 NW 0 0,0
25.03.2019 00:00:00 6,4 -0,1 9,4 6,6 5 3 7 4 NNW 0 0,0
24.03.2019 23:00:00 7,4 -0,1 9,5 6,5 3 2 9 5 N 0 0,0
24.03.2019 22:00:00 8,7 -0,9 9,6 6,5 6 3 13 7 N 0 0,0
24.03.2019 21:00:00 10,0 -1,4 9,7 6,5 6 3 14 8 N 0 0,0
24.03.2019 20:00:00 11,4 -2,4 9,8 6,5 6 4 13 7 NW 0 0,0
24.03.2019 19:00:00 12,0 -1,9 9,8 6,5 6 3 14 7 W 0 0,0
24.03.2019 18:00:00 15,2 -4,7 9,7 6,5 5 3 14 8 WNW 20 0,0
24.03.2019 17:00:00 18,4 -5,0 9,5 6,5 6 4 16 9 WNW 60 0,0
24.03.2019 16:00:00 20,1 -6,5 9,1 6,5 7 4 22 12 W 60 0,0
24.03.2019 15:00:00 22,1 -4,9 8,6 6,4 7 4 23 12 WSW 60 0,0
24.03.2019 14:00:00 22,4 -6,4 8,1 6,4 4 2 14 7 SSE 60 0,0
24.03.2019 13:00:00 21,4 -3,2 7,6 6,4 4 2 11 6 S 60 0,0
24.03.2019 12:00:00 19,4 -4,2 7,2 6,4 5 3 12 7 S 60 0,0
24.03.2019 11:00:00 16,0 -4,6 7,0 6,4 3 1 7 4 E 60 0,0
24.03.2019 10:00:00 12,7 -3,2 6,9 6,4 3 1 6 4 ESE 60 0,0
24.03.2019 09:00:00 8,7 -1,7 7,1 6,4 3 2 7 4 NE 60 0,0
24.03.2019 08:00:00 3,4 -1,8 7,2 6,4 2 1 5 3 N 8 0,0
24.03.2019 07:00:00 2,9 -2,0 7,4 6,4 0 0 9 5 N 0 0,0
24.03.2019 06:00:00 2,5 -2,2 7,6 6,4 4 2 6 4 NNW 0 0,0
24.03.2019 05:00:00 3,0 -2,1 7,8 6,3 0 0 7 4 N 0 0,0
24.03.2019 04:00:00 3,4 -2,2 7,9 6,3 0 0 7 4 N 0 0,0
24.03.2019 03:00:00 4,0 -2,0 8,1 6,3 0 0 8 5 N 0 0,0
24.03.2019 02:00:00 4,3 -1,5 8,3 6,3 6 4 10 6 N 0 0,0
24.03.2019 01:00:00 5,4 -2,0 8,4 6,3 5 3 12 6 N 0 0,0
24.03.2019 00:00:00 5,7 -1,7 8,6 6,3 2 1 6 4 ENE 0 0,0
23.03.2019 23:00:00 6,6 -1,6 8,7 6,3 3 1 8 5 N 0 0,0
23.03.2019 22:00:00 7,5 -1,7 8,9 6,3 4 2 7 4 N 0 0,0
23.03.2019 21:00:00 8,8 -1,9 8,9 6,2 5 3 8 5 N 0 0,0
23.03.2019 20:00:00 10,5 -1,9 9,0 6,3 2 1 8 4 NNW 0 0,0
23.03.2019 19:00:00 13,3 -3,9 8,9 6,2 7 4 16 8 NW 0 0,0
23.03.2019 18:00:00 15,1 -4,8 8,8 6,2 9 5 21 12 WNW 19 0,0
23.03.2019 17:00:00 18,2 -3,9 8,6 6,2 6 4 16 9 NW 60 0,0
23.03.2019 16:00:00 20,7 -6,9 8,3 6,2 6 4 20 11 N 60 0,0
23.03.2019 15:00:00 21,1 -4,9 7,7 6,2 6 3 14 8 NNE 60 0,0
23.03.2019 14:00:00 21,1 -7,5 7,1 6,2 4 2 11 6 E 60 0,0
23.03.2019 13:00:00 20,0 -7,5 6,7 6,2 5 3 11 6 E 60 0,0
23.03.2019 12:00:00 18,1 -8,2 6,2 6,2 4 2 10 5 S 60 0,0
23.03.2019 11:00:00 15,5 -6,8 6,0 6,1 4 2 8 4 S 60 0,0
23.03.2019 10:00:00 11,5 -6,9 6,1 6,2 0 0 6 4 N 60 0,0
23.03.2019 09:00:00 7,9 -4,6 6,2 6,1 3 2 6 3 E 60 0,0
23.03.2019 08:00:00 2,1 -4,6 6,4 6,1 2 1 5 3 N 6 0,0
23.03.2019 07:00:00 1,5 -4,8 6,5 6,1 0 0 4 2 N 0 0,0
23.03.2019 06:00:00 1,6 -5,1 6,7 6,1 5 3 8 4 N 0 0,0
23.03.2019 05:00:00 2,0 -4,7 6,9 6,1 4 2 6 3 NNE 0 0,0
23.03.2019 04:00:00 2,4 -4,4 7,1 6,1 2 1 8 4 N 0 0,0
23.03.2019 03:00:00 2,8 -4,2 7,2 6,1 4 2 8 4 N 0 0,0
23.03.2019 02:00:00 3,4 -3,9 7,4 6,1 5 3 7 4 NNE 0 0,0
23.03.2019 01:00:00 4,4 -4,4 7,6 6,1 4 2 8 4 N 0 0,0
23.03.2019 00:00:00 4,5 -3,8 7,7 6,1 5 3 6 4 N 0 0,0
22.03.2019 23:00:00 5,6 -4,6 7,8 6,1 4 2 8 5 N 0 0,0
22.03.2019 22:00:00 6,5 -4,6 8,0 6,1 3 1 8 4 N 0 0,0
22.03.2019 21:00:00 7,8 -4,7 8,1 6,1 2 1 8 4 NNW 0 0,0
22.03.2019 20:00:00 9,9 -5,7 8,1 6,0 4 2 9 5 NNW 0 0,0
22.03.2019 19:00:00 12,5 -7,0 8,1 6,1 6 3 18 10 NNW 0 0,0
22.03.2019 18:00:00 14,2 -7,3 8,0 6,0 4 2 20 11 NNE 18 0,0
22.03.2019 17:00:00 16,5 -7,9 7,8 6,0 11 6 16 9 NW 60 0,0
22.03.2019 16:00:00 19,7 -10,6 7,4 6,0 5 3 16 9 WNW 60 0,0
22.03.2019 15:00:00 20,5 -12,2 6,8 6,0 5 3 18 10 SSW 60 0,0
22.03.2019 14:00:00 20,0 -12,6 6,2 6,0 3 1 14 8 NE 60 0,0
22.03.2019 13:00:00 20,0 -11,4 5,7 6,0 2 1 10 5 SSE 60 0,0
22.03.2019 12:00:00 17,7 -13,2 5,4 6,0 4 2 10 5 S 60 0,0
22.03.2019 11:00:00 14,4 -9,0 5,1 6,0 3 2 8 5 SE 60 0,0
22.03.2019 10:00:00 10,6 -6,7 5,1 6,0 3 2 6 3 E 60 0,0
22.03.2019 09:00:00 6,4 -6,6 5,3 6,0 0 0 9 5 N 60 0,0
22.03.2019 08:00:00 1,0 -5,9 5,4 6,0 5 3 8 4 NNE 3 0,0
22.03.2019 07:00:00 0,5 -6,4 5,6 6,0 3 1 10 5 NNE 0 0,0
22.03.2019 06:00:00 0,4 -6,3 5,8 6,0 4 2 7 4 NNW 0 0,0
22.03.2019 05:00:00 0,4 -5,8 6,0 6,0 0 0 6 3 N 0 0,0
22.03.2019 04:00:00 0,8 -5,7 6,1 6,0 4 2 6 3 N 0 0,0
22.03.2019 03:00:00 1,5 -5,2 6,3 6,0 3 2 6 4 N 0 0,0
22.03.2019 02:00:00 1,8 -5,2 6,5 6,0 3 2 10 5 NNW 0 0,0
22.03.2019 01:00:00 2,3 -4,7 6,6 6,0 0 0 7 4 N 0 0,0
22.03.2019 00:00:00 3,4 -4,6 6,8 5,9 2 1 8 4 WNW 0 0,0
21.03.2019 23:00:00 4,1 -4,1 6,9 6,0 3 2 6 3 NW 0 0,0
21.03.2019 22:00:00 5,1 -4,2 7,0 5,9 2 1 7 4 N 0 0,0
21.03.2019 21:00:00 6,6 -5,4 7,1 5,9 0 0 8 5 N 0 0,0
21.03.2019 20:00:00 9,8 -7,9 7,1 5,9 0 0 22 12 N 0 0,0
21.03.2019 19:00:00 11,8 -9,3 7,1 5,9 9 5 23 12 NNW 0 0,0
21.03.2019 18:00:00 13,9 -10,1 7,0 5,9 8 5 30 16 NNW 18 0,0
21.03.2019 17:00:00 16,5 -12,1 6,8 5,9 16 8 37 20 ENE 60 0,0
21.03.2019 16:00:00 17,3 -10,5 6,5 5,9 17 9 43 23 NE 60 0,0
21.03.2019 15:00:00 17,5 -12,3 6,1 5,9 16 9 44 24 ENE 60 0,0
21.03.2019 14:00:00 17,4 -13,4 5,6 5,9 21 11 48 26 ENE 60 0,0
21.03.2019 13:00:00 16,4 -10,4 5,2 5,9 22 12 54 29 NE 60 0,0
21.03.2019 12:00:00 15,8 -11,7 4,9 5,9 20 11 48 26 NE 60 0,0
21.03.2019 11:00:00 10,3 -5,7 4,7 5,9 9 5 14 7 S 60 0,0
21.03.2019 10:00:00 6,5 -5,8 4,8 5,9 4 2 8 5 ENE 60 0,0
21.03.2019 09:00:00 2,3 -4,9 5,0 5,9 4 2 7 4 S 60 0,0
21.03.2019 08:00:00 -1,2 -6,2 5,1 5,9 4 2 9 5 NNE 0 0,0
21.03.2019 07:00:00 -2,2 -5,5 5,3 5,9 3 2 6 3 NNW 0 0,0
21.03.2019 06:00:00 -1,8 -5,3 5,4 5,9 4 2 6 4 NW 0 0,0
21.03.2019 05:00:00 -1,5 -5,4 5,6 5,9 2 1 8 5 N 0 0,0
21.03.2019 04:00:00 -1,3 -4,8 5,8 5,9 3 1 8 5 N 0 0,0
21.03.2019 03:00:00 -0,8 -4,9 6,0 5,8 3 1 6 4 N 0 0,0
21.03.2019 02:00:00 -0,4 -4,3 6,1 5,9 4 2 8 5 N 0 0,0
21.03.2019 01:00:00 0,1 -4,0 6,3 5,8 2 1 6 4 N 0 0,0
21.03.2019 00:00:00 0,7 -4,0 6,5 5,8 2 1 6 3 NNW 0 0,0
20.03.2019 23:00:00 1,6 -4,1 6,6 5,8 3 2 6 4 NNE 0 0,0
20.03.2019 22:00:00 2,4 -3,7 6,8 5,8 3 1 7 4 NNW 0 0,0
20.03.2019 21:00:00 3,7 -4,5 6,9 5,8 5 3 8 5 NNE 0 0,0
20.03.2019 20:00:00 5,1 -4,5 6,9 5,8 3 2 11 6 N 0 0,0
20.03.2019 19:00:00 6,8 -5,6 6,9 5,8 6 4 15 8 WNW 0 0,0
20.03.2019 18:00:00 8,4 -6,6 6,8 5,8 5 3 13 7 WNW 17 0,0
20.03.2019 17:00:00 11,8 -5,2 6,6 5,8 6 3 14 8 WSW 60 0,0
20.03.2019 16:00:00 13,8 -8,8 6,2 5,8 6 3 14 8 ENE 60 0,0
20.03.2019 15:00:00 14,1 -9,9 5,7 5,8 4 2 14 8 SW 60 0,0
20.03.2019 14:00:00 12,9 -9,6 5,2 5,8 4 2 17 9 ESE 60 0,0
20.03.2019 13:00:00 12,3 -8,3 4,8 5,8 8 4 15 8 SSE 60 0,0
20.03.2019 12:00:00 10,0 -8,2 4,5 5,7 5 3 15 8 SE 60 0,0
20.03.2019 11:00:00 7,6 -8,5 4,4 5,8 7 4 13 7 S 60 0,0
20.03.2019 10:00:00 4,8 -8,7 4,5 5,7 4 2 8 5 ESE 60 0,0
20.03.2019 09:00:00 1,9 -8,2 4,7 5,8 3 2 8 4 E 58 0,0
20.03.2019 08:00:00 -2,8 -7,3 4,8 5,7 0 0 7 4 N 0 0,0
20.03.2019 07:00:00 -3,4 -6,9 5,0 5,7 3 2 5 3 NNW 0 0,0
20.03.2019 06:00:00 -2,8 -6,6 5,1 5,7 0 0 5 3 N 0 0,0
20.03.2019 05:00:00 -2,5 -7,2 5,4 5,7 4 2 6 3 NNE 0 0,0
20.03.2019 04:00:00 -2,4 -6,4 5,5 5,7 3 2 5 3 NNE 0 0,0
20.03.2019 03:00:00 -1,9 -6,3 5,7 5,7 2 1 5 3 N 0 0,0
20.03.2019 02:00:00 -1,5 -6,3 5,9 5,7 0 0 6 3 N 0 0,0
20.03.2019 01:00:00 -1,0 -6,4 6,1 5,7 4 2 7 4 N 0 0,0
20.03.2019 00:00:00 -0,5 -6,1 6,3 5,7 3 1 5 3 NNW 0 0,0
19.03.2019 23:00:00 0,3 -6,1 6,5 5,7 3 2 6 3 NNW 0 0,0
19.03.2019 22:00:00 0,9 -5,8 6,6 5,7 3 2 7 4 NNW 0 0,0
19.03.2019 21:00:00 1,9 -5,3 6,8 5,7 0 0 11 6 N 0 0,0
19.03.2019 20:00:00 3,1 -5,3 6,9 5,7 4 2 9 5 NW 0 0,0
19.03.2019 19:00:00 4,1 -5,7 6,9 5,7 5 3 11 6 W 0 0,0
19.03.2019 18:00:00 5,8 -7,5 6,9 5,7 5 3 16 8 NW 16 0,0
19.03.2019 17:00:00 8,2 -7,5 6,8 5,6 7 4 16 8 WNW 60 0,0
19.03.2019 16:00:00 9,2 -10,4 6,5 5,6 10 5 24 13 NNE 50 0,0
19.03.2019 15:00:00 9,7 -10,5 6,0 5,6 9 5 26 14 NE 60 0,0
19.03.2019 14:00:00 9,5 -10,1 5,5 5,6 5 3 13 7 E 60 0,0
19.03.2019 13:00:00 9,5 -7,2 5,1 5,6 5 3 14 8 S 60 0,0
19.03.2019 12:00:00 7,8 -8,7 4,8 5,6 5 3 16 9 E 60 0,0
19.03.2019 11:00:00 7,0 -7,8 4,6 5,6 5 3 10 6 SE 60 0,0

tt = Température de l'air
td = dewpoint
tt -20cm = Température de l'air -20cm
tt -100cm = Température de l'air -100cm
ff = Vitesse du vent
fx = gusts
dd = Direction du vent
sd = Ensoleillement
rr = Quantités de précipitations

stations d'obs. à proximité